createdAt,value
2023-01-28T00:01:21.700Z,966.29
2023-01-28T00:06:23.620Z,966.29
2023-01-28T00:11:24.750Z,966.27
2023-01-28T00:16:26.255Z,966.29
2023-01-28T00:21:27.726Z,966.26
2023-01-28T00:26:29.355Z,966.26
2023-01-28T00:31:31.009Z,966.27
2023-01-28T00:36:33.098Z,966.27
2023-01-28T00:41:35.016Z,966.27
2023-01-28T00:46:36.917Z,966.3
2023-01-28T00:51:38.914Z,966.27
2023-01-28T00:56:40.019Z,966.27
2023-01-28T01:01:42.302Z,966.25
2023-01-28T01:06:44.117Z,966.25
2023-01-28T01:11:46.071Z,966.29
2023-01-28T01:16:47.965Z,966.33
2023-01-28T01:21:49.611Z,966.38
2023-01-28T01:26:51.313Z,966.36
2023-01-28T01:31:53.570Z,966.46
2023-01-28T01:36:55.048Z,966.44
2023-01-28T01:41:57.011Z,966.48
2023-01-28T01:46:58.299Z,966.48
2023-01-28T01:51:59.989Z,966.5
2023-01-28T01:57:01.280Z,966.53
2023-01-28T02:02:02.747Z,966.56
2023-01-28T02:07:04.167Z,966.56
2023-01-28T02:12:05.475Z,966.6
2023-01-28T02:17:07.006Z,966.6
2023-01-28T02:22:08.286Z,966.59
2023-01-28T02:27:09.667Z,966.55
2023-01-28T02:32:11.572Z,966.63
2023-01-28T02:37:13.684Z,966.67
2023-01-28T02:42:15.504Z,966.7
2023-01-28T02:47:17.584Z,966.74
2023-01-28T02:52:18.736Z,966.77
2023-01-28T02:57:20.649Z,966.83
2023-01-28T03:02:22.422Z,966.85
2023-01-28T03:07:23.884Z,966.83
2023-01-28T03:12:25.382Z,966.92
2023-01-28T03:17:27.388Z,966.93
2023-01-28T03:22:28.560Z,966.96
2023-01-28T03:27:30.193Z,966.97
2023-01-28T03:32:31.656Z,966.96
2023-01-28T03:37:33.613Z,966.94
2023-01-28T03:42:35.623Z,966.96
2023-01-28T03:47:37.508Z,967.03
2023-01-28T03:52:38.740Z,967.04
2023-01-28T03:57:40.850Z,966.97
2023-01-28T04:02:42.667Z,967.06
2023-01-28T04:07:43.885Z,967.07
2023-01-28T04:12:45.089Z,967.07
2023-01-28T04:17:46.396Z,967.13
2023-01-28T04:22:47.717Z,967.15
2023-01-28T04:27:49.336Z,967.17
2023-01-28T04:32:51.434Z,967.22
2023-01-28T04:37:52.602Z,967.27
2023-01-28T04:42:54.316Z,967.29
2023-01-28T04:47:55.556Z,967.28
2023-01-28T04:52:57.695Z,967.37
2023-01-28T04:57:59.330Z,967.4
2023-01-28T05:03:01.082Z,967.41
2023-01-28T05:08:02.484Z,967.42
2023-01-28T05:13:03.833Z,967.47
2023-01-28T05:18:05.811Z,967.51
2023-01-28T05:23:07.381Z,967.54
2023-01-28T05:28:09.083Z,967.62
2023-01-28T05:33:10.997Z,967.61
2023-01-28T05:38:15.168Z,967.67
2023-01-28T05:43:15.084Z,967.69
2023-01-28T05:48:16.777Z,967.74
2023-01-28T05:53:18.664Z,967.75
2023-01-28T05:58:20.353Z,967.79
2023-01-28T06:03:22.229Z,967.81
2023-01-28T06:08:24.437Z,967.79
2023-01-28T06:13:25.444Z,967.77
2023-01-28T06:18:27.733Z,967.84
2023-01-28T06:23:29.718Z,967.89
2023-01-28T06:28:31.236Z,967.94
2023-01-28T06:33:32.818Z,967.94
2023-01-28T06:38:33.979Z,968.04
2023-01-28T06:43:35.438Z,968.06
2023-01-28T06:48:37.219Z,968.12
2023-01-28T06:53:38.886Z,968.16
2023-01-28T06:58:41.012Z,968.21
2023-01-28T07:03:42.969Z,968.27
2023-01-28T07:08:44.517Z,968.3
2023-01-28T07:13:47.450Z,968.34
2023-01-28T07:18:47.911Z,968.38
2023-01-28T07:23:49.460Z,968.38
2023-01-28T07:28:51.673Z,968.49
2023-01-28T07:33:52.941Z,968.48
2023-01-28T07:38:54.824Z,968.54
2023-01-28T07:43:56.241Z,968.6
2023-01-28T07:48:57.935Z,968.71
2023-01-28T07:53:59.509Z,968.77
2023-01-28T07:59:01.217Z,968.72
2023-01-28T08:04:02.598Z,968.82
2023-01-28T08:09:03.745Z,968.81
2023-01-28T08:14:04.999Z,968.85
2023-01-28T08:19:06.800Z,968.94
2023-01-28T08:24:08.180Z,968.96
2023-01-28T08:29:10.308Z,969.01
2023-01-28T08:34:12.618Z,969.02
2023-01-28T08:39:13.934Z,968.96
2023-01-28T08:44:15.197Z,969.05
2023-01-28T08:49:16.801Z,969.07
2023-01-28T08:54:18.596Z,969.11
2023-01-28T08:59:20.386Z,969.13
2023-01-28T09:04:22.223Z,969.12
2023-01-28T09:09:23.458Z,969.13
2023-01-28T09:14:25.099Z,969.2
2023-01-28T09:19:27.018Z,969.23
2023-01-28T09:24:29.075Z,969.26
2023-01-28T09:29:30.900Z,969.25
2023-01-28T09:34:32.969Z,969.24
2023-01-28T09:39:34.659Z,969.25
2023-01-28T09:44:36.796Z,969.27
2023-01-28T09:49:38.956Z,969.33
2023-01-28T09:54:40.105Z,969.3
2023-01-28T09:59:42.127Z,969.32
2023-01-28T10:04:43.757Z,969.26
2023-01-28T10:09:45.639Z,969.2
2023-01-28T10:14:47.513Z,969.18
2023-01-28T10:19:49.788Z,969.18
2023-01-28T10:24:51.293Z,969.14
2023-01-28T10:29:52.968Z,969.03
2023-01-28T10:34:54.479Z,969.02
2023-01-28T10:39:56.567Z,968.95
2023-01-28T10:44:58.531Z,969
2023-01-28T10:50:00.547Z,969.06
2023-01-28T10:55:01.853Z,969.05
2023-01-28T11:00:03.563Z,969.02
2023-01-28T11:05:04.850Z,969.08
2023-01-28T11:10:06.406Z,969.06
2023-01-28T11:15:08.526Z,969.1
2023-01-28T11:50:27.070Z,969.03
2023-01-28T12:00:30.457Z,969.03
2023-01-28T12:05:32.283Z,968.96
2023-01-28T12:10:33.996Z,968.99
2023-01-28T12:20:36.627Z,968.97
2023-01-28T12:25:38.296Z,968.93
2023-01-28T12:30:39.389Z,968.98
2023-01-28T12:35:40.741Z,969.02
2023-01-28T12:40:41.830Z,969.06
2023-01-28T12:45:43.665Z,969
2023-01-28T12:50:44.862Z,969.08
2023-01-28T12:55:47.104Z,969.1
2023-01-28T13:00:48.311Z,969.03
2023-01-28T13:05:50.440Z,969
2023-01-28T13:10:51.889Z,969.04
2023-01-28T13:15:53.252Z,969.03
2023-01-28T13:20:55.855Z,969.05
2023-01-28T13:25:56.572Z,969.15
2023-01-28T13:30:59.090Z,969.11
2023-01-28T13:35:59.348Z,969.17
2023-01-28T13:41:00.754Z,969.23
2023-01-28T13:46:02.882Z,969.26
2023-01-28T13:51:04.592Z,969.31
2023-01-28T13:56:05.877Z,969.31
2023-01-28T14:01:07.596Z,969.29
2023-01-28T14:06:09.507Z,969.35
2023-01-28T14:11:11.412Z,969.37
2023-01-28T14:16:13.320Z,969.41
2023-01-28T14:21:14.760Z,969.48
2023-01-28T14:26:16.868Z,969.54
2023-01-28T14:31:18.683Z,969.6
2023-01-28T14:36:20.781Z,969.58
2023-01-28T14:41:22.539Z,969.61
2023-01-28T14:46:24.165Z,969.67
2023-01-28T14:51:26.280Z,969.73
2023-01-28T14:56:27.507Z,969.77
2023-01-28T15:01:28.813Z,969.79
2023-01-28T15:06:30.366Z,969.81
2023-01-28T15:11:32.138Z,969.81
2023-01-28T15:16:33.352Z,969.89
2023-01-28T15:21:35.293Z,969.87
2023-01-28T15:26:36.769Z,969.91
2023-01-28T15:31:38.713Z,969.98
2023-01-28T15:36:40.562Z,970.02
2023-01-28T15:41:42.428Z,970.19
2023-01-28T15:46:44.577Z,970.14
2023-01-28T15:51:45.792Z,970.16
2023-01-28T15:56:47.489Z,970.16
2023-01-28T16:01:49.492Z,970.23
2023-01-28T16:06:51.666Z,970.25
2023-01-28T16:11:53.189Z,970.29
2023-01-28T16:16:54.935Z,970.33
2023-01-28T16:21:56.645Z,970.44
2023-01-28T16:26:58.249Z,970.5
2023-01-28T16:32:00.218Z,970.59
2023-01-28T16:37:01.372Z,970.61
2023-01-28T16:42:03.149Z,970.65
2023-01-28T16:47:05.081Z,970.65
2023-01-28T16:52:06.367Z,970.74
2023-01-28T16:57:08.548Z,970.72
2023-01-28T17:02:10.219Z,970.72
2023-01-28T17:07:12.205Z,970.77
2023-01-28T17:12:14.149Z,970.79
2023-01-28T17:17:16.303Z,970.8
2023-01-28T17:22:17.700Z,970.87
2023-01-28T17:27:19.732Z,970.91
2023-01-28T17:32:21.463Z,970.96
2023-01-28T17:37:23.043Z,970.95
2023-01-28T17:42:26.334Z,970.98
2023-01-28T17:47:26.050Z,970.96
2023-01-28T17:52:27.979Z,971.02
2023-01-28T17:57:29.303Z,971.06
2023-01-28T18:02:31.123Z,971.01
2023-01-28T18:07:32.793Z,971.04
2023-01-28T18:12:34.654Z,971.15
2023-01-28T18:17:36.461Z,971.19
2023-01-28T18:22:38.444Z,971.24
2023-01-28T18:27:40.359Z,971.28
2023-01-28T18:32:41.704Z,971.23
2023-01-28T18:37:43.128Z,971.19
2023-01-28T18:42:44.823Z,971.26
2023-01-28T18:47:46.172Z,971.27
2023-01-28T18:52:48.048Z,971.29
2023-01-28T18:57:50.008Z,971.33
2023-01-28T19:02:52.017Z,971.32
2023-01-28T19:07:54.119Z,971.31
2023-01-28T19:12:55.770Z,971.22
2023-01-28T19:17:57.497Z,971.15
2023-01-28T19:22:59.496Z,971.26
2023-01-28T19:28:01.349Z,971.22
2023-01-28T19:33:02.670Z,971.2
2023-01-28T19:38:04.874Z,971.2
2023-01-28T19:43:06.862Z,971.28
2023-01-28T19:48:08.147Z,971.27
2023-01-28T19:53:09.845Z,971.21
2023-01-28T19:58:11.089Z,971.22
2023-01-28T20:03:13.271Z,971.24
2023-01-28T20:08:15.254Z,971.25
2023-01-28T20:13:16.527Z,971.27
2023-01-28T20:18:18.268Z,971.31
2023-01-28T20:23:19.579Z,971.36
2023-01-28T20:28:21.071Z,971.41
2023-01-28T20:33:22.979Z,971.45
2023-01-28T20:38:25.080Z,971.41
2023-01-28T20:43:28.627Z,971.55
2023-01-28T20:48:28.643Z,971.52
2023-01-28T20:53:30.230Z,971.56
2023-01-28T20:58:31.799Z,971.61
2023-01-28T21:03:33.750Z,971.63
2023-01-28T21:08:35.869Z,971.63
2023-01-28T21:13:37.411Z,971.64
2023-01-28T21:18:39.074Z,971.72
2023-01-28T21:23:41.132Z,971.72
2023-01-28T21:28:42.815Z,971.76
2023-01-28T21:33:44.304Z,971.81
2023-01-28T21:38:45.659Z,971.75
2023-01-28T21:43:47.290Z,971.8
2023-01-28T21:48:48.551Z,971.85
2023-01-28T21:53:49.840Z,971.88
2023-01-28T21:58:51.559Z,971.88
2023-01-28T22:03:53.165Z,971.85
2023-01-28T22:08:55.209Z,971.88
2023-01-28T22:13:56.976Z,971.95
2023-01-28T22:18:58.224Z,971.96
2023-01-28T22:23:59.670Z,971.93
2023-01-28T22:29:00.926Z,971.92
2023-01-28T22:34:03.042Z,971.87
2023-01-28T22:39:05.084Z,971.76
2023-01-28T22:44:07.288Z,971.78
2023-01-28T22:49:08.983Z,971.71
2023-01-28T22:54:10.832Z,971.79
2023-01-28T22:59:12.808Z,971.84
2023-01-28T23:04:14.313Z,971.82
2023-01-28T23:09:16.223Z,971.84
2023-01-28T23:14:17.552Z,971.83
2023-01-28T23:19:19.068Z,971.78
2023-01-28T23:24:20.422Z,971.8
2023-01-28T23:29:22.536Z,971.85
2023-01-28T23:34:24.229Z,971.81
2023-01-28T23:39:25.793Z,971.83
2023-01-28T23:44:27.037Z,971.74
2023-01-28T23:49:28.330Z,971.79
2023-01-28T23:54:29.546Z,971.76
2023-01-28T23:59:31.777Z,971.77
